sensor_id;sensor_type;location;lat;lon;timestamp;P1;durP1;ratioP1;P2;durP2;ratioP2
66575;SDS011;53428;47.686;16.584;2022-10-22T00:04:12;17.05;;;10.10;;
66575;SDS011;53428;47.686;16.584;2022-10-22T00:09:11;19.48;;;10.50;;
66575;SDS011;53428;47.686;16.584;2022-10-22T00:14:11;23.67;;;10.45;;
66575;SDS011;53428;47.686;16.584;2022-10-22T00:19:10;18.80;;;10.20;;
66575;SDS011;53428;47.686;16.584;2022-10-22T00:24:11;17.80;;;9.35;;
66575;SDS011;53428;47.686;16.584;2022-10-22T00:29:10;18.05;;;10.25;;
66575;SDS011;53428;47.686;16.584;2022-10-22T00:34:10;17.13;;;10.10;;
66575;SDS011;53428;47.686;16.584;2022-10-22T00:39:09;17.75;;;9.90;;
66575;SDS011;53428;47.686;16.584;2022-10-22T00:49:47;21.30;;;9.23;;
66575;SDS011;53428;47.686;16.584;2022-10-22T00:54:48;18.33;;;10.48;;
66575;SDS011;53428;47.686;16.584;2022-10-22T00:59:48;19.15;;;10.65;;
66575;SDS011;53428;47.686;16.584;2022-10-22T01:04:47;18.25;;;10.40;;
66575;SDS011;53428;47.686;16.584;2022-10-22T01:10:02;16.92;;;11.15;;
66575;SDS011;53428;47.686;16.584;2022-10-22T01:15:21;19.75;;;10.20;;
66575;SDS011;53428;47.686;16.584;2022-10-22T01:31:15;22.45;;;11.60;;
66575;SDS011;53428;47.686;16.584;2022-10-22T01:36:16;28.33;;;12.48;;
66575;SDS011;53428;47.686;16.584;2022-10-22T01:41:16;21.58;;;12.05;;
66575;SDS011;53428;47.686;16.584;2022-10-22T01:46:16;22.05;;;11.23;;
66575;SDS011;53428;47.686;16.584;2022-10-22T01:51:20;20.42;;;11.32;;
66575;SDS011;53428;47.686;16.584;2022-10-22T01:56:45;19.60;;;13.23;;
66575;SDS011;53428;47.686;16.584;2022-10-22T02:07:22;26.95;;;12.75;;
66575;SDS011;53428;47.686;16.584;2022-10-22T02:12:28;22.65;;;11.68;;
66575;SDS011;53428;47.686;16.584;2022-10-22T02:17:30;23.90;;;11.82;;
66575;SDS011;53428;47.686;16.584;2022-10-22T02:22:34;19.67;;;11.15;;
66575;SDS011;53428;47.686;16.584;2022-10-22T02:27:35;19.15;;;12.38;;
66575;SDS011;53428;47.686;16.584;2022-10-22T02:32:43;21.67;;;12.23;;
66575;SDS011;53428;47.686;16.584;2022-10-22T02:37:50;21.60;;;11.85;;
66575;SDS011;53428;47.686;16.584;2022-10-22T02:42:52;22.63;;;11.38;;
66575;SDS011;53428;47.686;16.584;2022-10-22T02:47:51;22.08;;;11.18;;
66575;SDS011;53428;47.686;16.584;2022-10-22T02:52:51;21.02;;;11.48;;
66575;SDS011;53428;47.686;16.584;2022-10-22T02:57:50;21.00;;;11.48;;
66575;SDS011;53428;47.686;16.584;2022-10-22T03:02:49;16.95;;;10.70;;
66575;SDS011;53428;47.686;16.584;2022-10-22T03:07:49;23.67;;;12.30;;
66575;SDS011;53428;47.686;16.584;2022-10-22T03:12:48;17.00;;;10.85;;
66575;SDS011;53428;47.686;16.584;2022-10-22T03:17:48;24.13;;;10.45;;
66575;SDS011;53428;47.686;16.584;2022-10-22T03:22:47;15.43;;;10.25;;
66575;SDS011;53428;47.686;16.584;2022-10-22T03:27:47;17.23;;;10.48;;
66575;SDS011;53428;47.686;16.584;2022-10-22T03:32:48;16.52;;;10.30;;
66575;SDS011;53428;47.686;16.584;2022-10-22T03:37:48;24.92;;;12.20;;
66575;SDS011;53428;47.686;16.584;2022-10-22T03:42:48;19.38;;;12.07;;
66575;SDS011;53428;47.686;16.584;2022-10-22T03:47:51;18.30;;;11.23;;
66575;SDS011;53428;47.686;16.584;2022-10-22T03:52:50;17.48;;;10.98;;
66575;SDS011;53428;47.686;16.584;2022-10-22T03:57:51;19.38;;;10.75;;
66575;SDS011;53428;47.686;16.584;2022-10-22T04:02:50;19.98;;;11.75;;
66575;SDS011;53428;47.686;16.584;2022-10-22T04:07:50;23.08;;;12.63;;
66575;SDS011;53428;47.686;16.584;2022-10-22T04:12:49;18.23;;;11.85;;
66575;SDS011;53428;47.686;16.584;2022-10-22T04:17:49;24.88;;;13.20;;
66575;SDS011;53428;47.686;16.584;2022-10-22T04:22:48;22.67;;;11.48;;
66575;SDS011;53428;47.686;16.584;2022-10-22T04:27:47;24.52;;;12.90;;
66575;SDS011;53428;47.686;16.584;2022-10-22T04:32:47;20.20;;;12.60;;
66575;SDS011;53428;47.686;16.584;2022-10-22T04:37:46;23.35;;;11.85;;
66575;SDS011;53428;47.686;16.584;2022-10-22T04:42:45;19.30;;;11.25;;
66575;SDS011;53428;47.686;16.584;2022-10-22T04:47:45;23.58;;;14.35;;
66575;SDS011;53428;47.686;16.584;2022-10-22T04:52:44;43.53;;;19.70;;
66575;SDS011;53428;47.686;16.584;2022-10-22T04:57:43;32.25;;;14.95;;
66575;SDS011;53428;47.686;16.584;2022-10-22T05:02:47;21.45;;;12.27;;
66575;SDS011;53428;47.686;16.584;2022-10-22T05:07:47;26.98;;;12.55;;
66575;SDS011;53428;47.686;16.584;2022-10-22T05:12:49;27.17;;;13.15;;
66575;SDS011;53428;47.686;16.584;2022-10-22T05:17:48;21.02;;;11.65;;
66575;SDS011;53428;47.686;16.584;2022-10-22T05:22:48;21.45;;;10.85;;
66575;SDS011;53428;47.686;16.584;2022-10-22T05:27:48;29.63;;;12.77;;
66575;SDS011;53428;47.686;16.584;2022-10-22T05:32:48;30.08;;;14.45;;
66575;SDS011;53428;47.686;16.584;2022-10-22T05:37:47;32.25;;;15.93;;
66575;SDS011;53428;47.686;16.584;2022-10-22T05:42:46;25.58;;;15.68;;
66575;SDS011;53428;47.686;16.584;2022-10-22T05:47:46;30.88;;;16.75;;
66575;SDS011;53428;47.686;16.584;2022-10-22T05:52:45;39.65;;;20.63;;
66575;SDS011;53428;47.686;16.584;2022-10-22T05:57:44;37.70;;;20.85;;
66575;SDS011;53428;47.686;16.584;2022-10-22T06:02:47;24.63;;;15.73;;
66575;SDS011;53428;47.686;16.584;2022-10-22T06:12:47;24.27;;;13.63;;
66575;SDS011;53428;47.686;16.584;2022-10-22T06:17:47;19.63;;;12.68;;
66575;SDS011;53428;47.686;16.584;2022-10-22T06:22:46;20.70;;;12.52;;
66575;SDS011;53428;47.686;16.584;2022-10-22T06:27:49;27.98;;;15.48;;
66575;SDS011;53428;47.686;16.584;2022-10-22T06:32:49;24.45;;;13.88;;
66575;SDS011;53428;47.686;16.584;2022-10-22T06:37:48;24.95;;;13.88;;
66575;SDS011;53428;47.686;16.584;2022-10-22T06:42:48;19.67;;;13.50;;
66575;SDS011;53428;47.686;16.584;2022-10-22T06:47:47;23.10;;;14.23;;
66575;SDS011;53428;47.686;16.584;2022-10-22T06:52:46;25.02;;;12.32;;
66575;SDS011;53428;47.686;16.584;2022-10-22T06:57:45;19.23;;;11.30;;
66575;SDS011;53428;47.686;16.584;2022-10-22T07:02:48;19.70;;;11.15;;
66575;SDS011;53428;47.686;16.584;2022-10-22T07:07:50;17.27;;;11.45;;
66575;SDS011;53428;47.686;16.584;2022-10-22T07:12:50;24.67;;;11.13;;
66575;SDS011;53428;47.686;16.584;2022-10-22T07:17:49;19.85;;;12.15;;
66575;SDS011;53428;47.686;16.584;2022-10-22T07:22:49;20.55;;;11.52;;
66575;SDS011;53428;47.686;16.584;2022-10-22T07:27:48;19.67;;;12.15;;
66575;SDS011;53428;47.686;16.584;2022-10-22T07:32:47;22.05;;;13.10;;
66575;SDS011;53428;47.686;16.584;2022-10-22T07:37:47;19.35;;;11.68;;
66575;SDS011;53428;47.686;16.584;2022-10-22T07:42:46;17.65;;;11.18;;
66575;SDS011;53428;47.686;16.584;2022-10-22T07:47:46;22.20;;;11.50;;
66575;SDS011;53428;47.686;16.584;2022-10-22T07:52:46;31.88;;;13.10;;
66575;SDS011;53428;47.686;16.584;2022-10-22T07:57:45;22.13;;;12.88;;
66575;SDS011;53428;47.686;16.584;2022-10-22T08:02:44;18.27;;;11.75;;
66575;SDS011;53428;47.686;16.584;2022-10-22T08:07:44;36.47;;;18.75;;
66575;SDS011;53428;47.686;16.584;2022-10-22T08:12:43;27.83;;;15.48;;
66575;SDS011;53428;47.686;16.584;2022-10-22T08:17:42;22.50;;;13.27;;
66575;SDS011;53428;47.686;16.584;2022-10-22T08:22:42;25.77;;;14.98;;
66575;SDS011;53428;47.686;16.584;2022-10-22T08:27:41;19.60;;;13.25;;
66575;SDS011;53428;47.686;16.584;2022-10-22T08:32:40;23.45;;;12.45;;
66575;SDS011;53428;47.686;16.584;2022-10-22T08:37:40;21.13;;;13.32;;
66575;SDS011;53428;47.686;16.584;2022-10-22T08:53:02;27.35;;;12.10;;
66575;SDS011;53428;47.686;16.584;2022-10-22T08:58:27;22.77;;;12.55;;
66575;SDS011;53428;47.686;16.584;2022-10-22T09:08:32;24.52;;;11.80;;
66575;SDS011;53428;47.686;16.584;2022-10-22T09:13:34;18.95;;;11.93;;
66575;SDS011;53428;47.686;16.584;2022-10-22T09:24:10;21.02;;;13.07;;
66575;SDS011;53428;47.686;16.584;2022-10-22T09:29:16;22.48;;;12.95;;
66575;SDS011;53428;47.686;16.584;2022-10-22T09:34:21;20.10;;;12.73;;
66575;SDS011;53428;47.686;16.584;2022-10-22T09:39:21;22.65;;;13.07;;
66575;SDS011;53428;47.686;16.584;2022-10-22T09:44:23;20.45;;;12.40;;
66575;SDS011;53428;47.686;16.584;2022-10-22T09:49:23;21.45;;;13.02;;
66575;SDS011;53428;47.686;16.584;2022-10-22T09:59:32;26.05;;;12.60;;
66575;SDS011;53428;47.686;16.584;2022-10-22T10:04:39;21.40;;;13.15;;
66575;SDS011;53428;47.686;16.584;2022-10-22T10:09:40;18.90;;;12.98;;
66575;SDS011;53428;47.686;16.584;2022-10-22T10:14:43;20.02;;;13.27;;
66575;SDS011;53428;47.686;16.584;2022-10-22T10:30:42;25.80;;;13.85;;
66575;SDS011;53428;47.686;16.584;2022-10-22T10:36:15;29.15;;;13.95;;
66575;SDS011;53428;47.686;16.584;2022-10-22T11:18:26;20.40;;;13.05;;
66575;SDS011;53428;47.686;16.584;2022-10-22T11:23:41;26.77;;;15.18;;
66575;SDS011;53428;47.686;16.584;2022-10-22T11:28:47;29.52;;;17.23;;
66575;SDS011;53428;47.686;16.584;2022-10-22T11:33:58;29.60;;;15.65;;
66575;SDS011;53428;47.686;16.584;2022-10-22T11:39:44;23.70;;;14.45;;
66575;SDS011;53428;47.686;16.584;2022-10-22T11:45:26;20.60;;;13.93;;
66575;SDS011;53428;47.686;16.584;2022-10-22T11:50:46;22.58;;;13.63;;
66575;SDS011;53428;47.686;16.584;2022-10-22T11:55:52;25.40;;;12.77;;
66575;SDS011;53428;47.686;16.584;2022-10-22T12:00:56;24.42;;;13.75;;
66575;SDS011;53428;47.686;16.584;2022-10-22T12:16:12;25.83;;;15.15;;
66575;SDS011;53428;47.686;16.584;2022-10-22T12:21:12;23.95;;;15.52;;
66575;SDS011;53428;47.686;16.584;2022-10-22T12:26:26;22.90;;;15.15;;
66575;SDS011;53428;47.686;16.584;2022-10-22T12:31:28;24.65;;;16.67;;
66575;SDS011;53428;47.686;16.584;2022-10-22T12:36:35;35.63;;;19.42;;
66575;SDS011;53428;47.686;16.584;2022-10-22T12:41:35;28.58;;;16.90;;
66575;SDS011;53428;47.686;16.584;2022-10-22T12:46:36;32.22;;;18.17;;
66575;SDS011;53428;47.686;16.584;2022-10-22T12:51:39;30.58;;;18.92;;
66575;SDS011;53428;47.686;16.584;2022-10-22T12:56:39;30.48;;;19.85;;
66575;SDS011;53428;47.686;16.584;2022-10-22T13:01:38;28.65;;;17.70;;
66575;SDS011;53428;47.686;16.584;2022-10-22T13:06:51;26.92;;;16.45;;
66575;SDS011;53428;47.686;16.584;2022-10-22T13:12:03;36.55;;;20.27;;
66575;SDS011;53428;47.686;16.584;2022-10-22T13:22:32;48.00;;;25.40;;
66575;SDS011;53428;47.686;16.584;2022-10-22T13:27:33;54.42;;;26.45;;
66575;SDS011;53428;47.686;16.584;2022-10-22T13:32:32;39.88;;;24.45;;
66575;SDS011;53428;47.686;16.584;2022-10-22T13:37:32;52.45;;;27.00;;
66575;SDS011;53428;47.686;16.584;2022-10-22T13:42:32;37.95;;;22.85;;
66575;SDS011;53428;47.686;16.584;2022-10-22T13:47:31;40.85;;;22.98;;
66575;SDS011;53428;47.686;16.584;2022-10-22T13:52:37;43.70;;;23.63;;
66575;SDS011;53428;47.686;16.584;2022-10-22T13:57:39;42.22;;;23.65;;
66575;SDS011;53428;47.686;16.584;2022-10-22T14:02:39;52.03;;;29.08;;
66575;SDS011;53428;47.686;16.584;2022-10-22T14:07:38;48.15;;;26.63;;
66575;SDS011;53428;47.686;16.584;2022-10-22T14:12:38;53.10;;;28.77;;
66575;SDS011;53428;47.686;16.584;2022-10-22T14:17:37;49.08;;;26.50;;
66575;SDS011;53428;47.686;16.584;2022-10-22T14:22:37;40.33;;;26.30;;
66575;SDS011;53428;47.686;16.584;2022-10-22T14:27:37;48.00;;;27.65;;
66575;SDS011;53428;47.686;16.584;2022-10-22T14:32:36;47.10;;;28.95;;
66575;SDS011;53428;47.686;16.584;2022-10-22T14:37:35;59.22;;;35.08;;
66575;SDS011;53428;47.686;16.584;2022-10-22T14:42:36;55.60;;;33.85;;
66575;SDS011;53428;47.686;16.584;2022-10-22T14:47:39;63.00;;;35.80;;
66575;SDS011;53428;47.686;16.584;2022-10-22T14:52:38;83.38;;;46.33;;
66575;SDS011;53428;47.686;16.584;2022-10-22T14:57:38;53.20;;;36.63;;
66575;SDS011;53428;47.686;16.584;2022-10-22T15:02:38;52.50;;;35.92;;
66575;SDS011;53428;47.686;16.584;2022-10-22T15:07:40;51.90;;;30.15;;
66575;SDS011;53428;47.686;16.584;2022-10-22T15:12:39;45.67;;;30.55;;
66575;SDS011;53428;47.686;16.584;2022-10-22T15:17:38;52.42;;;33.60;;
66575;SDS011;53428;47.686;16.584;2022-10-22T15:22:37;53.30;;;32.58;;
66575;SDS011;53428;47.686;16.584;2022-10-22T15:27:37;51.55;;;32.67;;
66575;SDS011;53428;47.686;16.584;2022-10-22T15:32:36;56.28;;;33.72;;
66575;SDS011;53428;47.686;16.584;2022-10-22T15:37:35;48.90;;;30.45;;
66575;SDS011;53428;47.686;16.584;2022-10-22T15:42:36;41.88;;;22.55;;
66575;SDS011;53428;47.686;16.584;2022-10-22T15:47:35;43.58;;;27.27;;
66575;SDS011;53428;47.686;16.584;2022-10-22T15:52:34;46.13;;;30.80;;
66575;SDS011;53428;47.686;16.584;2022-10-22T15:57:34;51.58;;;35.08;;
66575;SDS011;53428;47.686;16.584;2022-10-22T16:02:34;70.65;;;45.72;;
66575;SDS011;53428;47.686;16.584;2022-10-22T16:07:33;92.18;;;52.85;;
66575;SDS011;53428;47.686;16.584;2022-10-22T16:12:33;79.22;;;46.25;;
66575;SDS011;53428;47.686;16.584;2022-10-22T16:17:33;98.68;;;61.40;;
66575;SDS011;53428;47.686;16.584;2022-10-22T16:22:33;90.68;;;52.45;;
66575;SDS011;53428;47.686;16.584;2022-10-22T16:27:32;88.38;;;55.42;;
66575;SDS011;53428;47.686;16.584;2022-10-22T16:32:31;83.63;;;52.17;;
66575;SDS011;53428;47.686;16.584;2022-10-22T16:37:30;76.75;;;49.20;;
66575;SDS011;53428;47.686;16.584;2022-10-22T16:42:30;170.40;;;85.25;;
66575;SDS011;53428;47.686;16.584;2022-10-22T16:47:29;98.15;;;57.35;;
66575;SDS011;53428;47.686;16.584;2022-10-22T16:52:28;95.57;;;54.53;;
66575;SDS011;53428;47.686;16.584;2022-10-22T16:57:27;81.93;;;53.83;;
66575;SDS011;53428;47.686;16.584;2022-10-22T17:02:27;96.57;;;57.72;;
66575;SDS011;53428;47.686;16.584;2022-10-22T17:07:26;101.38;;;58.45;;
66575;SDS011;53428;47.686;16.584;2022-10-22T17:12:25;99.13;;;58.30;;
66575;SDS011;53428;47.686;16.584;2022-10-22T17:17:24;93.90;;;53.58;;
66575;SDS011;53428;47.686;16.584;2022-10-22T17:22:24;108.72;;;63.88;;
66575;SDS011;53428;47.686;16.584;2022-10-22T17:27:23;96.90;;;57.35;;
66575;SDS011;53428;47.686;16.584;2022-10-22T17:32:22;94.82;;;56.50;;
66575;SDS011;53428;47.686;16.584;2022-10-22T17:37:21;108.70;;;62.22;;
66575;SDS011;53428;47.686;16.584;2022-10-22T17:42:21;107.55;;;67.88;;
66575;SDS011;53428;47.686;16.584;2022-10-22T17:47:20;116.22;;;66.97;;
66575;SDS011;53428;47.686;16.584;2022-10-22T17:52:19;185.75;;;85.05;;
66575;SDS011;53428;47.686;16.584;2022-10-22T17:57:19;204.20;;;91.80;;
66575;SDS011;53428;47.686;16.584;2022-10-22T18:02:18;210.40;;;103.28;;
66575;SDS011;53428;47.686;16.584;2022-10-22T18:07:17;200.75;;;102.97;;
66575;SDS011;53428;47.686;16.584;2022-10-22T18:12:16;176.77;;;84.70;;
66575;SDS011;53428;47.686;16.584;2022-10-22T18:17:15;93.38;;;52.80;;
66575;SDS011;53428;47.686;16.584;2022-10-22T18:22:14;84.70;;;46.35;;
66575;SDS011;53428;47.686;16.584;2022-10-22T18:27:13;76.32;;;44.28;;
66575;SDS011;53428;47.686;16.584;2022-10-22T18:32:13;59.35;;;36.80;;
66575;SDS011;53428;47.686;16.584;2022-10-22T18:37:12;59.13;;;34.92;;
66575;SDS011;53428;47.686;16.584;2022-10-22T18:42:11;152.18;;;75.25;;
66575;SDS011;53428;47.686;16.584;2022-10-22T18:47:10;102.32;;;54.15;;
66575;SDS011;53428;47.686;16.584;2022-10-22T18:52:09;70.43;;;41.85;;
66575;SDS011;53428;47.686;16.584;2022-10-22T18:57:09;66.63;;;39.63;;
66575;SDS011;53428;47.686;16.584;2022-10-22T19:02:10;56.20;;;36.33;;
66575;SDS011;53428;47.686;16.584;2022-10-22T19:07:10;103.32;;;63.38;;
66575;SDS011;53428;47.686;16.584;2022-10-22T19:12:10;67.82;;;45.17;;
66575;SDS011;53428;47.686;16.584;2022-10-22T19:17:12;69.47;;;44.00;;
66575;SDS011;53428;47.686;16.584;2022-10-22T19:22:12;48.65;;;32.35;;
66575;SDS011;53428;47.686;16.584;2022-10-22T19:27:11;53.05;;;33.35;;
66575;SDS011;53428;47.686;16.584;2022-10-22T19:32:13;58.53;;;35.13;;
66575;SDS011;53428;47.686;16.584;2022-10-22T19:37:14;50.28;;;32.03;;
66575;SDS011;53428;47.686;16.584;2022-10-22T19:42:13;44.90;;;28.67;;
66575;SDS011;53428;47.686;16.584;2022-10-22T19:47:12;38.33;;;25.95;;
66575;SDS011;53428;47.686;16.584;2022-10-22T19:52:13;44.17;;;27.08;;
66575;SDS011;53428;47.686;16.584;2022-10-22T19:57:13;40.75;;;27.33;;
66575;SDS011;53428;47.686;16.584;2022-10-22T20:02:14;43.38;;;27.80;;
66575;SDS011;53428;47.686;16.584;2022-10-22T20:07:15;37.58;;;26.05;;
66575;SDS011;53428;47.686;16.584;2022-10-22T20:12:15;44.08;;;28.35;;
66575;SDS011;53428;47.686;16.584;2022-10-22T20:17:14;46.33;;;27.52;;
66575;SDS011;53428;47.686;16.584;2022-10-22T20:22:13;42.28;;;25.35;;
66575;SDS011;53428;47.686;16.584;2022-10-22T20:27:13;27.23;;;19.60;;
66575;SDS011;53428;47.686;16.584;2022-10-22T20:32:12;28.58;;;20.88;;
66575;SDS011;53428;47.686;16.584;2022-10-22T20:37:11;35.25;;;24.65;;
66575;SDS011;53428;47.686;16.584;2022-10-22T20:42:10;29.15;;;20.55;;
66575;SDS011;53428;47.686;16.584;2022-10-22T20:47:10;29.67;;;20.40;;
66575;SDS011;53428;47.686;16.584;2022-10-22T20:52:10;36.22;;;21.15;;
66575;SDS011;53428;47.686;16.584;2022-10-22T20:57:10;37.03;;;22.38;;
66575;SDS011;53428;47.686;16.584;2022-10-22T21:02:11;39.58;;;25.48;;
66575;SDS011;53428;47.686;16.584;2022-10-22T21:07:10;37.80;;;25.38;;
66575;SDS011;53428;47.686;16.584;2022-10-22T21:12:10;37.13;;;24.88;;
66575;SDS011;53428;47.686;16.584;2022-10-22T21:17:09;32.13;;;22.30;;
66575;SDS011;53428;47.686;16.584;2022-10-22T21:22:08;32.42;;;22.48;;
66575;SDS011;53428;47.686;16.584;2022-10-22T21:27:08;40.58;;;25.10;;
66575;SDS011;53428;47.686;16.584;2022-10-22T21:32:07;36.35;;;22.88;;
66575;SDS011;53428;47.686;16.584;2022-10-22T21:37:07;36.38;;;23.55;;
66575;SDS011;53428;47.686;16.584;2022-10-22T21:42:06;30.35;;;19.73;;
66575;SDS011;53428;47.686;16.584;2022-10-22T21:47:05;34.65;;;23.50;;
66575;SDS011;53428;47.686;16.584;2022-10-22T21:52:05;33.40;;;21.05;;
66575;SDS011;53428;47.686;16.584;2022-10-22T21:57:05;33.72;;;22.40;;
66575;SDS011;53428;47.686;16.584;2022-10-22T22:02:04;31.38;;;21.45;;
66575;SDS011;53428;47.686;16.584;2022-10-22T22:07:03;29.85;;;20.60;;
66575;SDS011;53428;47.686;16.584;2022-10-22T22:12:03;31.35;;;21.60;;
66575;SDS011;53428;47.686;16.584;2022-10-22T22:17:02;37.42;;;22.83;;
66575;SDS011;53428;47.686;16.584;2022-10-22T22:22:01;28.00;;;21.00;;
66575;SDS011;53428;47.686;16.584;2022-10-22T22:27:01;34.30;;;20.60;;
66575;SDS011;53428;47.686;16.584;2022-10-22T22:32:00;33.47;;;22.08;;
66575;SDS011;53428;47.686;16.584;2022-10-22T22:36:59;32.10;;;21.17;;
66575;SDS011;53428;47.686;16.584;2022-10-22T22:41:59;34.47;;;22.73;;
66575;SDS011;53428;47.686;16.584;2022-10-22T22:46:58;32.53;;;20.60;;
66575;SDS011;53428;47.686;16.584;2022-10-22T22:51:57;37.63;;;21.70;;
66575;SDS011;53428;47.686;16.584;2022-10-22T22:56:57;27.92;;;18.83;;
66575;SDS011;53428;47.686;16.584;2022-10-22T23:01:56;28.50;;;18.08;;
66575;SDS011;53428;47.686;16.584;2022-10-22T23:06:56;29.50;;;17.30;;
66575;SDS011;53428;47.686;16.584;2022-10-22T23:11:59;29.50;;;18.00;;
66575;SDS011;53428;47.686;16.584;2022-10-22T23:16:59;31.75;;;18.23;;
66575;SDS011;53428;47.686;16.584;2022-10-22T23:21:58;31.38;;;17.75;;
66575;SDS011;53428;47.686;16.584;2022-10-22T23:26:59;29.15;;;17.55;;
66575;SDS011;53428;47.686;16.584;2022-10-22T23:32:01;25.30;;;15.15;;
66575;SDS011;53428;47.686;16.584;2022-10-22T23:37:01;24.00;;;14.27;;
66575;SDS011;53428;47.686;16.584;2022-10-22T23:42:01;21.83;;;14.90;;
66575;SDS011;53428;47.686;16.584;2022-10-22T23:47:00;20.23;;;12.82;;
66575;SDS011;53428;47.686;16.584;2022-10-22T23:52:00;18.48;;;11.50;;
66575;SDS011;53428;47.686;16.584;2022-10-22T23:57:03;20.67;;;12.05;;
